Tville, Georgia
Current Conditions -  °F | °C
As of 6:35 PM on Saturday 20 Dec 2014 (Local Time) from KTVI Reporting Station
Overcast Overcast  
Wind Chill: 55°   Ceiling: 6500
Heat Index: 55°   Visibility: 10mi
Dew Point: 55°   Wind: 6mph
Humidity: 100%   Direction: 60°ENE
Pressure: 30.13"   Gusts: NA
Location:  30.8297°N, 83.9811°W
Report Text: KTVI 202335Z AUTO 06005KT 10SM OVC065 13/13 A3013 RMK AO2
Loading
Personal Weather Stations






























Interactive Weather Map New forecast layout! Learn more

10-Day Weather Forecast

Advertisements
Track Severe Weather on mobile